createdAt,value
2017-08-11T00:00:46.062Z,0.00
2017-08-11T00:02:39.054Z,0.00
2017-08-11T00:03:39.062Z,0.00
2017-08-11T00:05:32.022Z,0.00
2017-08-11T00:06:32.062Z,0.00
2017-08-11T00:08:25.062Z,0.00
2017-08-11T00:09:25.055Z,0.00
2017-08-11T00:11:18.014Z,0.00
2017-08-11T00:12:18.054Z,0.00
2017-08-11T00:14:11.062Z,0.00
2017-08-11T00:15:11.046Z,0.00
2017-08-11T00:17:04.006Z,0.00
2017-08-11T00:18:04.046Z,0.00
2017-08-11T00:19:57.038Z,0.00
2017-08-11T00:20:57.047Z,0.00
2017-08-11T00:22:50.063Z,0.00
2017-08-11T00:23:50.046Z,0.00
2017-08-11T00:25:43.000Z,0.00
2017-08-11T00:26:43.136Z,0.00
2017-08-11T00:28:36.033Z,0.00
2017-08-11T00:29:36.047Z,0.00
2017-08-11T00:31:29.007Z,0.00
2017-08-11T00:32:29.039Z,0.00
2017-08-11T00:34:22.031Z,0.00
2017-08-11T00:35:22.040Z,0.00
2017-08-11T00:37:15.001Z,0.00
2017-08-11T00:38:15.032Z,0.00
2017-08-11T00:40:08.024Z,0.00
2017-08-11T00:41:08.032Z,0.00
2017-08-11T00:43:01.016Z,0.00
2017-08-11T00:44:01.024Z,0.00
2017-08-11T00:45:54.043Z,0.00
2017-08-11T00:46:54.018Z,0.00
2017-08-11T00:48:46.984Z,0.00
2017-08-11T00:49:47.024Z,0.00
2017-08-11T00:51:40.008Z,0.00
2017-08-11T00:52:40.016Z,0.00
2017-08-11T00:54:33.040Z,0.00
2017-08-11T00:55:33.024Z,0.00
2017-08-11T00:57:25.984Z,0.00
2017-08-11T00:58:26.016Z,0.00
2017-08-11T01:00:19.002Z,0.00
2017-08-11T01:01:19.016Z,0.00
2017-08-11T01:03:11.976Z,0.00
2017-08-11T01:04:12.009Z,0.00
2017-08-11T01:06:05.001Z,0.00
2017-08-11T01:07:05.008Z,0.00
2017-08-11T01:08:58.016Z,0.00
2017-08-11T01:09:58.009Z,0.00
2017-08-11T01:11:51.001Z,0.00
2017-08-11T01:12:51.008Z,0.00
2017-08-11T01:14:43.977Z,0.00
2017-08-11T01:15:44.001Z,0.00
2017-08-11T01:17:37.027Z,0.00
2017-08-11T01:18:37.017Z,0.00
2017-08-11T01:20:29.977Z,0.00
2017-08-11T01:21:30.018Z,0.00
2017-08-11T01:23:23.034Z,0.00
2017-08-11T01:24:23.010Z,0.00
2017-08-11T01:26:15.993Z,0.00
2017-08-11T01:27:16.027Z,0.00
2017-08-11T01:29:09.034Z,0.00
2017-08-11T01:30:09.025Z,0.00
2017-08-11T01:32:01.986Z,0.00
2017-08-11T01:33:02.018Z,0.00
2017-08-11T01:34:55.034Z,0.00
2017-08-11T01:35:55.018Z,0.00
2017-08-11T01:37:47.986Z,0.00
2017-08-11T01:38:48.018Z,0.00
2017-08-11T01:40:41.018Z,0.00
2017-08-11T01:41:41.018Z,0.00
2017-08-11T01:43:34.010Z,0.00
2017-08-11T01:44:34.011Z,0.00
2017-08-11T01:46:26.970Z,0.00
2017-08-11T01:47:27.010Z,0.00
2017-08-11T01:49:19.994Z,0.00
2017-08-11T01:50:20.002Z,0.00
2017-08-11T01:52:12.971Z,0.00
2017-08-11T01:53:13.011Z,0.00
2017-08-11T01:55:06.044Z,0.00
2017-08-11T01:56:06.003Z,0.00
2017-08-11T01:57:58.971Z,0.00
2017-08-11T01:58:59.011Z,0.00
2017-08-11T02:00:51.995Z,0.00
2017-08-11T02:01:52.003Z,0.00
2017-08-11T02:03:54.979Z,0.00
2017-08-11T02:04:55.019Z,0.00
2017-08-11T02:06:48.083Z,0.00
2017-08-11T02:07:48.027Z,0.00
2017-08-11T02:09:41.515Z,0.00
2017-08-11T02:10:41.515Z,0.00
2017-08-11T02:12:34.478Z,0.00
2017-08-11T02:13:34.515Z,0.00
2017-08-11T02:15:27.483Z,0.00
2017-08-11T02:16:27.508Z,0.00
2017-08-11T02:18:20.484Z,0.00
2017-08-11T02:19:20.508Z,0.00
2017-08-11T02:21:13.516Z,0.00
2017-08-11T02:22:13.500Z,0.00
2017-08-11T02:24:06.460Z,0.00
2017-08-11T02:25:06.500Z,0.00
2017-08-11T02:26:59.516Z,0.00
2017-08-11T02:27:59.493Z,0.00
2017-08-11T02:29:52.452Z,0.00
2017-08-11T02:30:52.485Z,0.00
2017-08-11T02:32:45.484Z,0.00
2017-08-11T02:33:45.485Z,0.00
2017-08-11T02:35:38.453Z,0.00
2017-08-11T02:36:38.484Z,0.00
2017-08-11T02:38:31.493Z,0.00
2017-08-11T02:39:31.485Z,0.00
2017-08-11T02:41:24.445Z,0.00
2017-08-11T02:42:24.477Z,0.00
2017-08-11T02:44:17.485Z,0.00
2017-08-11T02:45:17.477Z,0.00
2017-08-11T02:47:10.437Z,0.00
2017-08-11T02:48:10.477Z,0.00
2017-08-11T02:50:03.462Z,0.00
2017-08-11T02:51:03.470Z,0.00
2017-08-11T02:52:56.429Z,0.00
2017-08-11T02:53:56.461Z,0.00
2017-08-11T02:55:49.501Z,0.00
2017-08-11T02:56:49.462Z,0.00
2017-08-11T02:58:42.430Z,0.00
2017-08-11T02:59:42.462Z,0.00
2017-08-11T03:01:35.446Z,0.00
2017-08-11T03:02:35.453Z,0.00
2017-08-11T03:04:28.413Z,0.00
2017-08-11T03:05:28.446Z,0.00
2017-08-11T03:07:21.438Z,0.00
2017-08-11T03:08:21.446Z,0.00
2017-08-11T03:10:14.406Z,0.00
2017-08-11T03:11:14.446Z,0.00
2017-08-11T03:13:07.462Z,0.00
2017-08-11T03:14:07.438Z,0.00
2017-08-11T03:16:00.390Z,0.00
2017-08-11T03:17:00.430Z,0.00
2017-08-11T03:18:53.430Z,0.00
2017-08-11T03:19:53.441Z,0.00
2017-08-11T03:21:46.398Z,0.00
2017-08-11T03:22:46.430Z,0.00
2017-08-11T03:24:39.423Z,0.00
2017-08-11T03:25:39.422Z,0.00
2017-08-11T03:27:32.390Z,0.00
2017-08-11T03:28:32.422Z,0.00
2017-08-11T03:30:25.407Z,0.00
2017-08-11T03:31:25.431Z,0.00
2017-08-11T03:33:18.390Z,0.00
2017-08-11T03:34:18.423Z,0.00
2017-08-11T03:36:11.415Z,0.00
2017-08-11T03:37:11.415Z,0.00
2017-08-11T03:39:04.391Z,0.00
2017-08-11T03:40:04.415Z,0.00
2017-08-11T03:41:57.391Z,0.00
2017-08-11T03:42:57.408Z,0.00
2017-08-11T03:44:50.383Z,0.00
2017-08-11T03:45:50.405Z,0.00
2017-08-11T03:47:43.359Z,0.00
2017-08-11T03:48:43.391Z,0.00
2017-08-11T03:50:36.408Z,0.00
2017-08-11T03:51:36.392Z,0.00
2017-08-11T03:53:29.359Z,0.00
2017-08-11T03:54:29.400Z,0.00
2017-08-11T03:56:22.376Z,0.00
2017-08-11T03:57:22.400Z,0.00
2017-08-11T03:59:15.376Z,0.00
2017-08-11T04:00:15.384Z,0.00
2017-08-11T04:02:08.343Z,4.00
2017-08-11T04:03:08.368Z,4.00
2017-08-11T04:05:01.367Z,4.00
2017-08-11T04:06:01.376Z,4.00
2017-08-11T04:07:54.336Z,4.00
2017-08-11T04:08:54.375Z,4.00
2017-08-11T04:10:47.398Z,8.00
2017-08-11T04:11:47.367Z,8.00
2017-08-11T04:13:40.327Z,8.00
2017-08-11T04:14:40.358Z,12.00
2017-08-11T04:16:33.358Z,16.00
2017-08-11T04:17:33.350Z,12.00
2017-08-11T04:19:26.320Z,16.00
2017-08-11T04:20:26.359Z,16.00
2017-08-11T04:22:19.366Z,20.00
2017-08-11T04:23:19.359Z,20.00
2017-08-11T04:25:12.311Z,24.00
2017-08-11T04:26:12.343Z,28.00
2017-08-11T04:28:05.335Z,32.00
2017-08-11T04:29:05.335Z,28.00
2017-08-11T04:30:58.319Z,24.00
2017-08-11T04:31:58.335Z,24.00
2017-08-11T04:33:51.336Z,28.00
2017-08-11T04:34:51.328Z,32.00
2017-08-11T04:36:44.304Z,40.00
2017-08-11T04:37:44.335Z,44.00
2017-08-11T04:39:37.311Z,52.00
2017-08-11T04:40:37.320Z,56.00
2017-08-11T04:42:30.321Z,56.00
2017-08-11T04:43:30.320Z,56.00
2017-08-11T04:45:23.288Z,60.00
2017-08-11T04:46:23.328Z,68.00
2017-08-11T04:48:16.329Z,80.00
2017-08-11T04:49:16.320Z,84.00
2017-08-11T04:51:09.287Z,96.00
2017-08-11T04:52:09.327Z,96.00
2017-08-11T04:54:02.311Z,100.00
2017-08-11T04:55:02.327Z,96.00
2017-08-11T04:56:55.286Z,100.00
2017-08-11T04:57:55.320Z,104.00
2017-08-11T04:59:48.311Z,116.00
2017-08-11T05:00:48.312Z,116.00
2017-08-11T05:02:41.279Z,128.00
2017-08-11T05:03:41.312Z,136.00
2017-08-11T05:05:34.296Z,140.00
2017-08-11T05:06:34.314Z,140.00
2017-08-11T05:08:27.263Z,152.00
2017-08-11T05:09:27.308Z,160.00
2017-08-11T05:11:20.295Z,176.00
2017-08-11T05:12:20.296Z,176.00
2017-08-11T05:14:13.264Z,176.00
2017-08-11T05:15:13.296Z,176.00
2017-08-11T05:17:06.288Z,192.00
2017-08-11T05:18:06.297Z,216.00
2017-08-11T05:19:59.256Z,264.00
2017-08-11T05:20:59.297Z,276.00
2017-08-11T05:22:52.305Z,300.00
2017-08-11T05:23:52.296Z,304.00
2017-08-11T05:25:45.280Z,320.00
2017-08-11T05:26:45.288Z,324.00
2017-08-11T05:28:38.248Z,344.00
2017-08-11T05:29:38.288Z,356.00
2017-08-11T05:31:31.272Z,364.00
2017-08-11T05:32:31.289Z,364.00
2017-08-11T05:34:24.248Z,360.00
2017-08-11T05:35:24.281Z,344.00
2017-08-11T05:37:17.281Z,304.00
2017-08-11T05:38:17.273Z,280.00
2017-08-11T05:40:10.241Z,228.00
2017-08-11T05:41:10.273Z,212.00
2017-08-11T05:43:03.251Z,192.00
2017-08-11T05:44:03.257Z,188.00
2017-08-11T05:45:56.217Z,188.00
2017-08-11T05:46:56.257Z,188.00
2017-08-11T05:48:49.274Z,196.00
2017-08-11T05:49:49.266Z,200.00
2017-08-11T05:51:42.362Z,204.00
2017-08-11T05:52:42.258Z,208.00
2017-08-11T05:54:35.226Z,216.00
2017-08-11T05:55:35.257Z,224.00
2017-08-11T05:57:28.234Z,228.00
2017-08-11T05:58:28.258Z,228.00
2017-08-11T06:00:21.266Z,240.00
2017-08-11T06:01:21.251Z,256.00
2017-08-11T06:03:14.210Z,300.00
2017-08-11T06:04:14.250Z,316.00
2017-08-11T06:06:07.282Z,336.00
2017-08-11T06:07:07.242Z,340.00
2017-08-11T06:09:00.194Z,372.00
2017-08-11T06:10:00.242Z,384.00
2017-08-11T06:11:53.226Z,384.00
2017-08-11T06:12:53.234Z,356.00
2017-08-11T06:14:46.202Z,304.00
2017-08-11T06:15:46.227Z,292.00
2017-08-11T06:17:39.253Z,316.00
2017-08-11T06:18:39.242Z,340.00
2017-08-11T06:20:32.213Z,376.00
2017-08-11T06:21:32.240Z,388.00
2017-08-11T06:23:25.224Z,448.00
2017-08-11T06:24:25.240Z,476.00
2017-08-11T06:26:18.209Z,488.00
2017-08-11T06:27:18.240Z,464.00
2017-08-11T06:29:11.224Z,440.00
2017-08-11T06:30:11.232Z,452.00
2017-08-11T06:32:04.216Z,512.00
2017-08-11T06:33:04.248Z,532.00
2017-08-11T06:34:57.185Z,552.00
2017-08-11T06:35:57.225Z,568.00
2017-08-11T06:37:50.217Z,596.00
2017-08-11T06:38:50.225Z,600.00
2017-08-11T06:40:43.193Z,600.00
2017-08-11T06:41:43.217Z,600.00
2017-08-11T06:43:36.201Z,600.00
2017-08-11T06:44:36.208Z,624.00
2017-08-11T06:46:29.178Z,704.00
2017-08-11T06:47:29.211Z,700.00
2017-08-11T06:49:22.236Z,776.00
2017-08-11T06:50:22.210Z,816.00
2017-08-11T06:52:15.201Z,920.00
2017-08-11T06:53:15.203Z,976.00
2017-08-11T06:55:08.161Z,1172.00
2017-08-11T06:56:08.193Z,1200.00
2017-08-11T06:58:01.186Z,1176.00
2017-08-11T06:59:01.194Z,1068.00
2017-08-11T07:00:54.146Z,872.00
2017-08-11T07:01:54.185Z,800.00
2017-08-11T07:03:47.177Z,580.00
2017-08-11T07:04:47.180Z,476.00
2017-08-11T07:06:40.147Z,624.00
2017-08-11T07:07:40.178Z,632.00
2017-08-11T07:09:33.186Z,608.00
2017-08-11T07:10:33.170Z,572.00
2017-08-11T07:12:26.138Z,532.00
2017-08-11T07:13:26.170Z,624.00
2017-08-11T07:15:19.202Z,716.00
2017-08-11T07:16:19.162Z,756.00
2017-08-11T07:18:12.146Z,768.00
2017-08-11T07:19:12.155Z,848.00
2017-08-11T07:21:05.155Z,764.00
2017-08-11T07:22:05.147Z,668.00
2017-08-11T07:23:58.133Z,600.00
2017-08-11T07:24:58.147Z,608.00
2017-08-11T07:26:51.123Z,716.00
2017-08-11T07:27:51.147Z,808.00
2017-08-11T07:29:44.339Z,936.00
2017-08-11T07:30:44.147Z,1008.00
2017-08-11T07:32:37.107Z,972.00
2017-08-11T07:33:37.140Z,952.00
2017-08-11T07:35:30.132Z,932.00
2017-08-11T07:36:30.140Z,972.00
2017-08-11T07:38:23.140Z,908.00
2017-08-11T07:39:23.133Z,912.00
2017-08-11T07:41:16.124Z,1004.00
2017-08-11T07:42:16.132Z,1044.00
2017-08-11T07:44:09.117Z,1128.00
2017-08-11T07:45:09.124Z,1140.00
2017-08-11T07:47:02.117Z,1168.00
2017-08-11T07:48:02.125Z,1044.00
2017-08-11T07:49:55.101Z,840.00
2017-08-11T07:50:55.116Z,776.00
2017-08-11T07:52:48.108Z,896.00
2017-08-11T07:53:48.116Z,988.00
2017-08-11T07:55:41.085Z,904.00
2017-08-11T07:56:41.118Z,916.00
2017-08-11T07:58:34.121Z,1028.00
2017-08-11T07:59:34.121Z,968.00
2017-08-11T08:01:27.070Z,1016.00
2017-08-11T08:02:27.107Z,1048.00
2017-08-11T08:04:20.079Z,1060.00
2017-08-11T08:05:20.102Z,1028.00
2017-08-11T08:07:13.094Z,1048.00
2017-08-11T08:08:13.103Z,1164.00
2017-08-11T08:10:06.111Z,1108.00
2017-08-11T08:11:06.103Z,892.00
2017-08-11T08:12:59.064Z,1128.00
2017-08-11T08:13:59.095Z,1188.00
2017-08-11T08:15:52.080Z,1128.00
2017-08-11T08:16:52.087Z,1080.00
2017-08-11T08:18:45.055Z,1288.00
2017-08-11T08:19:45.087Z,1236.00
2017-08-11T08:21:38.071Z,1012.00
2017-08-11T08:22:38.095Z,1096.00
2017-08-11T08:24:31.039Z,1004.00
2017-08-11T08:25:31.080Z,1028.00
2017-08-11T08:27:24.094Z,1220.00
2017-08-11T08:28:24.080Z,1236.00
2017-08-11T08:30:17.055Z,1300.00
2017-08-11T08:31:17.080Z,1324.00
2017-08-11T08:33:10.056Z,1372.00
2017-08-11T08:34:10.090Z,1416.00
2017-08-11T08:36:03.089Z,1304.00
2017-08-11T08:37:03.064Z,1248.00
2017-08-11T08:38:56.024Z,1200.00
2017-08-11T08:39:56.056Z,1192.00
2017-08-11T08:41:49.032Z,1660.00
2017-08-11T08:42:49.053Z,1568.00
2017-08-11T08:44:42.013Z,1696.00
2017-08-11T08:45:42.045Z,1616.00
2017-08-11T08:47:35.037Z,1416.00
2017-08-11T08:48:35.037Z,1448.00
2017-08-11T08:50:28.022Z,1400.00
2017-08-11T08:51:28.029Z,1364.00
2017-08-11T08:53:20.997Z,1264.00
2017-08-11T08:54:21.026Z,1356.00
2017-08-11T08:56:14.010Z,1268.00
2017-08-11T08:57:14.025Z,1204.00
2017-08-11T08:59:06.993Z,1344.00
2017-08-11T09:00:07.026Z,1420.00
2017-08-11T09:02:00.010Z,1904.00
2017-08-11T09:03:00.010Z,2104.00
2017-08-11T09:04:52.978Z,1988.00
2017-08-11T09:05:53.033Z,1600.00
2017-08-11T09:07:46.004Z,1668.00
2017-08-11T09:08:46.010Z,1760.00
2017-08-11T09:10:38.970Z,1804.00
2017-08-11T09:11:39.002Z,1780.00
2017-08-11T09:13:31.996Z,1184.00
2017-08-11T09:14:32.002Z,1400.00
2017-08-11T09:16:24.983Z,1900.00
2017-08-11T09:17:24.991Z,1864.00
2017-08-11T09:19:18.016Z,1272.00
2017-08-11T09:20:18.000Z,956.00
2017-08-11T09:22:10.960Z,1116.00
2017-08-11T09:23:11.016Z,832.00
2017-08-11T09:25:03.985Z,560.00
2017-08-11T09:26:03.992Z,692.00
2017-08-11T09:27:56.977Z,844.00
2017-08-11T09:28:56.991Z,956.00
2017-08-11T09:30:49.976Z,1352.00
2017-08-11T09:31:50.008Z,1548.00
2017-08-11T09:33:43.040Z,1796.00
2017-08-11T09:34:43.039Z,1988.00
2017-08-11T09:36:36.039Z,2280.00
2017-08-11T09:37:36.031Z,2328.00
2017-08-11T09:39:28.992Z,2008.00
2017-08-11T09:40:29.023Z,1960.00
2017-08-11T09:42:22.016Z,1980.00
2017-08-11T09:43:22.024Z,1748.00
2017-08-11T09:45:14.976Z,1404.00
2017-08-11T09:46:15.019Z,1172.00
2017-08-11T09:48:08.002Z,1020.00
2017-08-11T09:49:08.009Z,1004.00
2017-08-11T09:51:00.965Z,1088.00
2017-08-11T09:52:01.006Z,1172.00
2017-08-11T09:53:53.997Z,1904.00
2017-08-11T09:54:54.013Z,2248.00
2017-08-11T09:56:46.997Z,2532.00
2017-08-11T09:57:47.013Z,2680.00
2017-08-11T09:59:39.972Z,2696.00
2017-08-11T10:01:52.980Z,2976.00
2017-08-11T10:02:52.988Z,3044.00
2017-08-11T10:04:45.973Z,3032.00
2017-08-11T10:05:45.989Z,2992.00
2017-08-11T10:07:38.946Z,2908.00
2017-08-11T10:08:38.987Z,2824.00
2017-08-11T10:10:31.986Z,2528.00
2017-08-11T10:11:31.991Z,2520.00
2017-08-11T10:13:24.951Z,1920.00
2017-08-11T10:14:24.991Z,1352.00
2017-08-11T10:16:18.033Z,1044.00
2017-08-11T10:17:17.991Z,888.00
2017-08-11T10:19:10.951Z,900.00
2017-08-11T10:20:10.991Z,992.00
2017-08-11T10:22:03.998Z,820.00
2017-08-11T10:23:03.991Z,896.00
2017-08-11T10:24:56.952Z,1172.00
2017-08-11T10:25:56.993Z,1308.00
2017-08-11T10:27:49.975Z,1412.00
2017-08-11T10:28:49.977Z,1476.00
2017-08-11T10:30:42.945Z,1940.00
2017-08-11T10:31:42.980Z,2464.00
2017-08-11T10:33:35.967Z,2844.00
2017-08-11T10:34:35.966Z,2832.00
2017-08-11T10:36:28.918Z,2464.00
2017-08-11T10:37:28.958Z,2104.00
2017-08-11T10:39:21.950Z,1456.00
2017-08-11T10:40:21.950Z,1332.00
2017-08-11T10:42:14.902Z,1336.00
2017-08-11T10:43:14.943Z,1160.00
2017-08-11T10:45:07.927Z,864.00
2017-08-11T10:46:07.935Z,860.00
2017-08-11T10:48:00.904Z,1020.00
2017-08-11T10:49:00.935Z,1016.00
2017-08-11T10:50:53.922Z,1100.00
2017-08-11T10:51:53.927Z,1176.00
2017-08-11T10:53:46.887Z,1496.00
2017-08-11T10:54:46.927Z,1576.00
2017-08-11T10:56:39.943Z,1532.00
2017-08-11T10:57:39.959Z,1616.00
2017-08-11T10:59:32.918Z,1916.00
2017-08-11T11:00:32.951Z,2024.00
2017-08-11T11:02:25.935Z,1816.00
2017-08-11T11:03:25.942Z,1472.00
2017-08-11T11:05:18.911Z,1208.00
2017-08-11T11:06:18.943Z,1100.00
2017-08-11T11:08:11.975Z,1144.00
2017-08-11T11:09:11.935Z,1104.00
2017-08-11T11:11:04.896Z,1048.00
2017-08-11T11:12:04.927Z,952.00
2017-08-11T11:13:57.920Z,804.00
2017-08-11T11:14:57.928Z,956.00
2017-08-11T11:16:50.895Z,1044.00
2017-08-11T11:17:51.857Z,968.00
2017-08-11T11:19:43.920Z,848.00
2017-08-11T11:20:43.912Z,816.00
2017-08-11T11:22:36.880Z,832.00
2017-08-11T11:23:36.904Z,820.00
2017-08-11T11:25:29.912Z,812.00
2017-08-11T11:26:29.904Z,804.00
2017-08-11T11:28:22.864Z,800.00
2017-08-11T11:29:22.896Z,828.00
2017-08-11T11:31:15.903Z,748.00
2017-08-11T11:32:15.897Z,700.00
2017-08-11T11:34:08.857Z,744.00
2017-08-11T11:35:08.897Z,780.00
2017-08-11T11:37:01.905Z,892.00
2017-08-11T11:38:01.889Z,912.00
2017-08-11T11:39:54.857Z,1044.00
2017-08-11T11:40:54.881Z,1056.00
2017-08-11T11:42:47.865Z,1156.00
2017-08-11T11:43:47.876Z,1196.00
2017-08-11T11:45:40.833Z,1548.00
2017-08-11T11:46:40.873Z,1832.00
2017-08-11T11:48:33.881Z,2268.00
2017-08-11T11:49:33.866Z,2608.00
2017-08-11T11:51:26.826Z,2432.00
2017-08-11T11:52:26.866Z,2640.00
2017-08-11T11:54:19.898Z,3312.00
2017-08-11T11:55:19.905Z,3436.00
2017-08-11T11:57:12.866Z,3032.00
2017-08-11T11:58:12.906Z,2416.00
2017-08-11T12:00:05.914Z,1736.00
2017-08-11T12:01:05.899Z,1556.00
2017-08-11T12:02:58.858Z,1340.00
2017-08-11T12:03:58.891Z,1356.00
2017-08-11T12:05:51.915Z,1516.00
2017-08-11T12:06:51.899Z,1572.00
2017-08-11T12:08:44.858Z,1736.00
2017-08-11T12:09:44.890Z,1896.00
2017-08-11T12:11:37.930Z,2084.00
2017-08-11T12:12:37.906Z,2316.00
2017-08-11T12:14:30.850Z,2012.00
2017-08-11T12:15:30.883Z,1740.00
2017-08-11T12:17:23.868Z,1324.00
2017-08-11T12:18:23.875Z,1236.00
2017-08-11T12:20:16.851Z,1068.00
2017-08-11T12:21:16.875Z,964.00
2017-08-11T12:23:09.868Z,836.00
2017-08-11T12:24:09.875Z,820.00
2017-08-11T12:26:02.843Z,860.00
2017-08-11T12:27:02.867Z,912.00
2017-08-11T12:28:55.883Z,1000.00
2017-08-11T12:29:55.868Z,1004.00
2017-08-11T12:31:48.828Z,1188.00
2017-08-11T12:32:48.868Z,1340.00
2017-08-11T12:34:41.867Z,1396.00
2017-08-11T12:35:41.883Z,1344.00
2017-08-11T12:37:34.836Z,1216.00
2017-08-11T12:38:34.868Z,1088.00
2017-08-11T12:40:27.883Z,812.00
2017-08-11T12:41:27.863Z,716.00
2017-08-11T12:43:20.820Z,644.00
2017-08-11T12:44:20.860Z,652.00
2017-08-11T12:46:13.924Z,808.00
2017-08-11T12:47:13.852Z,884.00
2017-08-11T12:49:06.812Z,1148.00
2017-08-11T12:50:06.852Z,1284.00
2017-08-11T12:51:59.860Z,1160.00
2017-08-11T12:52:59.844Z,1100.00
2017-08-11T12:54:52.796Z,1056.00
2017-08-11T12:55:52.838Z,1048.00
2017-08-11T12:57:45.844Z,1016.00
2017-08-11T12:58:45.828Z,924.00
2017-08-11T13:00:38.796Z,784.00
2017-08-11T13:01:38.821Z,744.00
2017-08-11T13:03:31.806Z,672.00
2017-08-11T13:04:31.805Z,668.00
2017-08-11T13:06:24.781Z,672.00
2017-08-11T13:07:24.805Z,612.00
2017-08-11T13:09:17.781Z,552.00
2017-08-11T13:10:17.797Z,540.00
2017-08-11T13:12:10.781Z,484.00
2017-08-11T13:13:10.797Z,488.00
2017-08-11T13:15:41.786Z,472.00
2017-08-11T13:16:41.813Z,452.00
2017-08-11T13:18:34.831Z,432.00
2017-08-11T13:19:34.807Z,420.00
2017-08-11T13:21:27.782Z,392.00
2017-08-11T13:22:27.798Z,388.00
2017-08-11T13:24:20.797Z,376.00
2017-08-11T13:25:20.797Z,352.00
2017-08-11T13:27:13.798Z,348.00
2017-08-11T13:28:13.797Z,396.00
2017-08-11T13:30:06.758Z,476.00
2017-08-11T13:31:06.790Z,472.00
2017-08-11T13:32:59.806Z,424.00
2017-08-11T13:33:59.798Z,444.00
2017-08-11T13:35:52.758Z,460.00
2017-08-11T13:36:52.798Z,476.00
2017-08-11T13:38:45.790Z,476.00
2017-08-11T13:39:45.790Z,488.00
2017-08-11T13:41:38.742Z,512.00
2017-08-11T13:42:38.782Z,532.00
2017-08-11T13:44:31.766Z,580.00
2017-08-11T13:45:31.774Z,644.00
2017-08-11T13:47:24.758Z,780.00
2017-08-11T13:48:24.799Z,804.00
2017-08-11T13:50:17.793Z,876.00
2017-08-11T13:51:17.799Z,948.00
2017-08-11T13:53:10.759Z,912.00
2017-08-11T13:54:10.790Z,808.00
2017-08-11T13:56:03.833Z,612.00
2017-08-11T13:57:03.791Z,568.00
2017-08-11T13:58:56.759Z,524.00
2017-08-11T13:59:56.782Z,516.00
2017-08-11T14:02:03.839Z,560.00
2017-08-11T14:02:49.778Z,592.00
2017-08-11T14:04:42.736Z,568.00
2017-08-11T14:05:42.777Z,572.00
2017-08-11T14:07:35.759Z,616.00
2017-08-11T14:08:35.768Z,612.00
2017-08-11T14:10:28.736Z,644.00
2017-08-11T14:11:28.767Z,728.00
2017-08-11T14:13:21.784Z,928.00
2017-08-11T14:14:21.768Z,1092.00
2017-08-11T14:16:14.727Z,1228.00
2017-08-11T14:17:14.760Z,1196.00
2017-08-11T14:19:07.760Z,1048.00
2017-08-11T14:20:07.752Z,992.00
2017-08-11T14:22:00.720Z,1008.00
2017-08-11T14:23:00.752Z,1000.00
2017-08-11T14:24:53.736Z,940.00
2017-08-11T14:25:53.744Z,884.00
2017-08-11T14:27:46.752Z,760.00
2017-08-11T14:28:46.752Z,700.00
2017-08-11T14:30:39.768Z,676.00
2017-08-11T14:31:39.752Z,680.00
2017-08-11T14:33:32.714Z,664.00
2017-08-11T14:34:32.745Z,632.00
2017-08-11T14:36:25.752Z,632.00
2017-08-11T14:37:25.737Z,740.00
2017-08-11T14:39:18.704Z,980.00
2017-08-11T14:40:18.736Z,976.00
2017-08-11T14:42:11.728Z,1292.00
2017-08-11T14:43:11.729Z,1516.00
2017-08-11T14:45:04.689Z,1792.00
2017-08-11T14:46:04.741Z,1840.00
2017-08-11T14:47:57.707Z,1848.00
2017-08-11T14:48:57.737Z,1856.00
2017-08-11T14:50:50.715Z,1808.00
2017-08-11T14:51:50.721Z,1720.00
2017-08-11T14:53:43.720Z,1500.00
2017-08-11T14:54:43.721Z,1332.00
2017-08-11T14:56:36.681Z,1048.00
2017-08-11T14:57:36.714Z,912.00
2017-08-11T14:59:29.705Z,804.00
2017-08-11T15:00:29.722Z,844.00
2017-08-11T15:02:22.729Z,824.00
2017-08-11T15:03:22.714Z,796.00
2017-08-11T15:05:15.674Z,756.00
2017-08-11T15:06:15.705Z,756.00
2017-08-11T15:08:08.722Z,812.00
2017-08-11T15:09:08.714Z,820.00
2017-08-11T15:11:01.666Z,796.00
2017-08-11T15:12:01.706Z,772.00
2017-08-11T15:13:54.690Z,676.00
2017-08-11T15:14:54.698Z,652.00
2017-08-11T15:16:47.650Z,540.00
2017-08-11T15:17:47.698Z,532.00
2017-08-11T15:19:40.706Z,464.00
2017-08-11T15:20:40.690Z,444.00
2017-08-11T15:22:33.650Z,388.00
2017-08-11T15:23:33.706Z,364.00
2017-08-11T15:25:26.675Z,360.00
2017-08-11T15:26:26.683Z,368.00
2017-08-11T15:28:19.712Z,356.00
2017-08-11T15:29:19.682Z,316.00
2017-08-11T15:31:12.643Z,276.00
2017-08-11T15:32:12.683Z,272.00
2017-08-11T15:34:05.684Z,240.00
2017-08-11T15:35:05.663Z,240.00
2017-08-11T15:36:58.652Z,300.00
2017-08-11T15:37:58.664Z,296.00
2017-08-11T15:39:51.623Z,332.00
2017-08-11T15:40:51.652Z,356.00
2017-08-11T15:42:44.645Z,384.00
2017-08-11T15:43:44.654Z,408.00
2017-08-11T15:45:37.637Z,456.00
2017-08-11T15:46:37.653Z,432.00
2017-08-11T15:48:30.645Z,388.00
2017-08-11T15:49:30.653Z,376.00
2017-08-11T15:51:23.615Z,384.00
2017-08-11T15:52:23.661Z,384.00
2017-08-11T15:54:16.662Z,364.00
2017-08-11T15:55:16.661Z,360.00
2017-08-11T15:57:09.637Z,344.00
2017-08-11T15:58:09.637Z,340.00
2017-08-11T16:00:02.653Z,344.00
2017-08-11T16:01:02.638Z,360.00
2017-08-11T16:02:55.598Z,384.00
2017-08-11T16:03:55.638Z,396.00
2017-08-11T16:05:48.638Z,408.00
2017-08-11T16:06:48.630Z,396.00
2017-08-11T16:08:41.606Z,384.00
2017-08-11T16:09:41.630Z,392.00
2017-08-11T16:11:34.638Z,404.00
2017-08-11T16:12:34.622Z,420.00
2017-08-11T16:14:27.582Z,464.00
2017-08-11T16:15:27.622Z,496.00
2017-08-11T16:17:20.663Z,504.00
2017-08-11T16:18:20.614Z,472.00
2017-08-11T16:20:13.577Z,420.00
2017-08-11T16:21:13.607Z,388.00
2017-08-11T16:23:06.598Z,304.00
2017-08-11T16:24:06.609Z,288.00
2017-08-11T16:25:59.615Z,304.00
2017-08-11T16:26:59.599Z,332.00
2017-08-11T16:28:52.591Z,344.00
2017-08-11T16:29:52.622Z,364.00
2017-08-11T16:31:45.630Z,380.00
2017-08-11T16:32:45.636Z,368.00
2017-08-11T16:34:38.607Z,316.00
2017-08-11T16:35:38.639Z,288.00
2017-08-11T16:37:31.631Z,284.00
2017-08-11T16:38:31.639Z,276.00
2017-08-11T16:40:24.687Z,272.00
2017-08-11T16:41:24.703Z,280.00
2017-08-11T16:43:17.783Z,296.00
2017-08-11T16:44:17.735Z,300.00
2017-08-11T16:46:10.680Z,288.00
2017-08-11T16:47:10.712Z,276.00
2017-08-11T16:49:03.688Z,252.00
2017-08-11T16:50:03.704Z,240.00
2017-08-11T16:51:56.688Z,232.00
2017-08-11T16:52:56.696Z,232.00
2017-08-11T16:54:49.704Z,228.00
2017-08-11T16:55:49.696Z,224.00
2017-08-11T16:57:42.680Z,232.00
2017-08-11T16:58:42.688Z,232.00
2017-08-11T17:00:35.696Z,228.00
2017-08-11T17:01:35.688Z,228.00
2017-08-11T17:03:28.648Z,232.00
2017-08-11T17:04:28.688Z,240.00
2017-08-11T17:06:21.704Z,256.00
2017-08-11T17:07:21.689Z,276.00
2017-08-11T17:09:14.653Z,320.00
2017-08-11T17:10:14.682Z,332.00
2017-08-11T17:12:07.696Z,352.00
2017-08-11T17:13:07.688Z,348.00
2017-08-11T17:15:00.673Z,340.00
2017-08-11T17:16:00.761Z,336.00
2017-08-11T17:17:53.712Z,364.00
2017-08-11T17:18:53.699Z,392.00
2017-08-11T17:20:46.690Z,400.00
2017-08-11T17:21:46.713Z,376.00
2017-08-11T17:23:39.737Z,332.00
2017-08-11T17:24:39.729Z,316.00
2017-08-11T17:26:32.681Z,296.00
2017-08-11T17:27:32.722Z,272.00
2017-08-11T17:29:25.721Z,220.00
2017-08-11T17:30:25.713Z,188.00
2017-08-11T17:32:18.689Z,164.00
2017-08-11T17:33:18.730Z,156.00
2017-08-11T17:35:11.698Z,144.00
2017-08-11T17:36:11.706Z,152.00
2017-08-11T17:38:04.674Z,168.00
2017-08-11T17:39:04.706Z,168.00
2017-08-11T17:40:57.706Z,168.00
2017-08-11T17:41:57.714Z,180.00
2017-08-11T17:43:50.699Z,200.00
2017-08-11T17:44:50.723Z,200.00
2017-08-11T17:46:43.690Z,224.00
2017-08-11T17:47:43.698Z,24.00
2017-08-11T17:49:35.690Z,44.00
2017-08-11T17:50:35.691Z,156.00
2017-08-11T17:52:28.650Z,72.00
2017-08-11T17:53:28.706Z,60.00
2017-08-11T17:55:21.674Z,48.00
2017-08-11T17:56:21.690Z,44.00
2017-08-11T17:58:14.682Z,36.00
2017-08-11T17:59:14.691Z,36.00
2017-08-11T18:01:07.706Z,32.00
2017-08-11T18:02:07.715Z,36.00
2017-08-11T18:04:00.763Z,36.00
2017-08-11T18:05:00.771Z,32.00
2017-08-11T18:06:53.786Z,32.00
2017-08-11T18:07:53.798Z,36.00
2017-08-11T18:09:46.819Z,48.00